sensor_id;sensor_type;location;lat;lon;timestamp;pressure;altitude;pressure_sealevel;temperature;humidity
51313;BME280;37397;53.226;10.400;2023-03-13T00:01:27;99878.31;;;5.80;73.75
51313;BME280;37397;53.226;10.400;2023-03-13T00:03:54;99877.06;;;5.81;73.95
51313;BME280;37397;53.226;10.400;2023-03-13T00:06:22;99868.59;;;5.81;73.68
51313;BME280;37397;53.226;10.400;2023-03-13T00:08:50;99867.47;;;5.79;73.58
51313;BME280;37397;53.226;10.400;2023-03-13T00:11:17;99868.13;;;5.83;73.80
51313;BME280;37397;53.226;10.400;2023-03-13T00:13:43;99861.63;;;5.82;74.09
51313;BME280;37397;53.226;10.400;2023-03-13T00:16:15;99870.47;;;5.84;74.04
51313;BME280;37397;53.226;10.400;2023-03-13T00:18:46;99861.16;;;5.84;74.09
51313;BME280;37397;53.226;10.400;2023-03-13T00:21:14;99858.69;;;5.86;73.74
51313;BME280;37397;53.226;10.400;2023-03-13T00:23:41;99846.53;;;5.85;73.89
51313;BME280;37397;53.226;10.400;2023-03-13T00:26:10;99853.78;;;5.87;73.98
51313;BME280;37397;53.226;10.400;2023-03-13T00:28:38;99844.06;;;5.88;74.13
51313;BME280;37397;53.226;10.400;2023-03-13T00:31:10;99843.25;;;5.87;73.79
51313;BME280;37397;53.226;10.400;2023-03-13T00:33:40;99827.06;;;5.88;73.81
51313;BME280;37397;53.226;10.400;2023-03-13T00:36:18;99831.91;;;5.87;73.97
51313;BME280;37397;53.226;10.400;2023-03-13T00:38:46;99826.25;;;5.87;74.18
51313;BME280;37397;53.226;10.400;2023-03-13T00:41:21;99817.63;;;5.81;74.18
51313;BME280;37397;53.226;10.400;2023-03-13T00:43:49;99824.53;;;5.90;73.88
51313;BME280;37397;53.226;10.400;2023-03-13T00:46:18;99823.72;;;5.89;74.29
51313;BME280;37397;53.226;10.400;2023-03-13T00:48:45;99825.31;;;5.90;74.38
51313;BME280;37397;53.226;10.400;2023-03-13T00:51:13;99813.69;;;5.88;73.84
51313;BME280;37397;53.226;10.400;2023-03-13T00:53:40;99814.75;;;5.91;74.15
51313;BME280;37397;53.226;10.400;2023-03-13T00:56:11;99811.47;;;5.92;73.79
51313;BME280;37397;53.226;10.400;2023-03-13T00:58:40;99799.34;;;5.92;73.72
51313;BME280;37397;53.226;10.400;2023-03-13T01:01:18;99795.28;;;5.93;73.81
51313;BME280;37397;53.226;10.400;2023-03-13T01:03:51;99791.03;;;5.88;73.97
51313;BME280;37397;53.226;10.400;2023-03-13T01:06:20;99794.00;;;5.94;73.96
51313;BME280;37397;53.226;10.400;2023-03-13T01:08:47;99794.81;;;5.94;74.15
51313;BME280;37397;53.226;10.400;2023-03-13T01:11:20;99789.91;;;5.95;74.23
51313;BME280;37397;53.226;10.400;2023-03-13T01:13:47;99785.50;;;5.94;74.27
51313;BME280;37397;53.226;10.400;2023-03-13T01:16:17;99778.59;;;5.95;74.11
51313;BME280;37397;53.226;10.400;2023-03-13T01:18:48;99774.50;;;5.96;74.01
51313;BME280;37397;53.226;10.400;2023-03-13T01:21:16;99784.59;;;5.97;74.21
51313;BME280;37397;53.226;10.400;2023-03-13T01:23:45;99765.56;;;5.97;74.03
51313;BME280;37397;53.226;10.400;2023-03-13T01:26:13;99763.50;;;5.98;74.13
51313;BME280;37397;53.226;10.400;2023-03-13T01:28:40;99756.59;;;5.99;73.80
51313;BME280;37397;53.226;10.400;2023-03-13T01:33:37;99755.31;;;6.00;74.20
51313;BME280;37397;53.226;10.400;2023-03-13T01:36:04;99741.47;;;6.02;74.25
51313;BME280;37397;53.226;10.400;2023-03-13T01:38:30;99730.13;;;6.02;74.25
51313;BME280;37397;53.226;10.400;2023-03-13T01:40:57;99718.81;;;6.02;74.04
51313;BME280;37397;53.226;10.400;2023-03-13T01:43:26;99716.44;;;6.00;74.19
51313;BME280;37397;53.226;10.400;2023-03-13T01:46:07;99703.09;;;6.01;74.23
51313;BME280;37397;53.226;10.400;2023-03-13T01:49:02;99699.31;;;6.04;74.36
51313;BME280;37397;53.226;10.400;2023-03-13T01:51:47;99698.97;;;6.02;74.11
51313;BME280;37397;53.226;10.400;2023-03-13T01:54:36;99682.78;;;6.02;74.06
51313;BME280;37397;53.226;10.400;2023-03-13T01:57:12;99670.38;;;6.00;74.32
51313;BME280;37397;53.226;10.400;2023-03-13T01:59:51;99672.53;;;6.05;74.19
51313;BME280;37397;53.226;10.400;2023-03-13T02:02:19;99664.53;;;6.03;74.41
51313;BME280;37397;53.226;10.400;2023-03-13T02:04:51;99665.94;;;6.08;74.45
51313;BME280;37397;53.226;10.400;2023-03-13T02:07:26;99658.72;;;6.07;74.75
51313;BME280;37397;53.226;10.400;2023-03-13T02:09:56;99650.69;;;6.06;74.73
51313;BME280;37397;53.226;10.400;2023-03-13T02:12:32;99642.31;;;6.11;74.99
51313;BME280;37397;53.226;10.400;2023-03-13T02:15:03;99628.97;;;6.12;74.77
51313;BME280;37397;53.226;10.400;2023-03-13T02:17:33;99636.94;;;6.13;74.90
51313;BME280;37397;53.226;10.400;2023-03-13T02:20:02;99623.59;;;6.14;74.71
51313;BME280;37397;53.226;10.400;2023-03-13T02:27:35;99610.69;;;6.13;74.90
51313;BME280;37397;53.226;10.400;2023-03-13T02:30:06;99613.66;;;6.18;74.80
51313;BME280;37397;53.226;10.400;2023-03-13T02:32:34;99612.06;;;6.17;74.89
51313;BME280;37397;53.226;10.400;2023-03-13T02:35:08;99596.66;;;6.18;74.96
51313;BME280;37397;53.226;10.400;2023-03-13T02:37:37;99599.50;;;6.18;74.67
51313;BME280;37397;53.226;10.400;2023-03-13T02:40:09;99599.78;;;6.20;74.66
51313;BME280;37397;53.226;10.400;2023-03-13T02:42:37;99590.38;;;6.14;74.78
51313;BME280;37397;53.226;10.400;2023-03-13T02:45:04;99590.03;;;6.22;74.83
51313;BME280;37397;53.226;10.400;2023-03-13T02:47:32;99591.00;;;6.18;74.88
51313;BME280;37397;53.226;10.400;2023-03-13T02:49:59;99584.38;;;6.22;75.12
51313;BME280;37397;53.226;10.400;2023-03-13T02:52:29;99575.38;;;6.23;74.92
51313;BME280;37397;53.226;10.400;2023-03-13T02:55:02;99581.53;;;6.22;74.62
51313;BME280;37397;53.226;10.400;2023-03-13T02:57:31;99573.19;;;6.18;75.05
51313;BME280;37397;53.226;10.400;2023-03-13T03:00:00;99563.63;;;6.15;74.89
51313;BME280;37397;53.226;10.400;2023-03-13T03:02:29;99561.72;;;6.22;74.84
51313;BME280;37397;53.226;10.400;2023-03-13T03:04:55;99559.16;;;6.24;74.81
51313;BME280;37397;53.226;10.400;2023-03-13T03:07:23;99563.25;;;6.23;74.97
51313;BME280;37397;53.226;10.400;2023-03-13T03:09:50;99555.56;;;6.23;74.80
51313;BME280;37397;53.226;10.400;2023-03-13T03:12:18;99550.97;;;6.26;75.03
51313;BME280;37397;53.226;10.400;2023-03-13T03:14:45;99550.47;;;6.27;74.93
51313;BME280;37397;53.226;10.400;2023-03-13T03:17:13;99542.47;;;6.26;74.90
51313;BME280;37397;53.226;10.400;2023-03-13T03:19:40;99538.66;;;6.29;74.85
51313;BME280;37397;53.226;10.400;2023-03-13T03:22:07;99533.78;;;6.29;74.86
51313;BME280;37397;53.226;10.400;2023-03-13T03:24:34;99528.44;;;6.31;75.01
51313;BME280;37397;53.226;10.400;2023-03-13T03:27:02;99521.38;;;6.27;75.43
51313;BME280;37397;53.226;10.400;2023-03-13T03:29:35;99518.84;;;6.29;75.24
51313;BME280;37397;53.226;10.400;2023-03-13T03:32:03;99514.56;;;6.33;75.28
51313;BME280;37397;53.226;10.400;2023-03-13T03:34:30;99499.63;;;6.33;75.41
51313;BME280;37397;53.226;10.400;2023-03-13T03:36:57;99486.09;;;6.28;75.48
51313;BME280;37397;53.226;10.400;2023-03-13T03:39:26;99488.28;;;6.33;75.23
51313;BME280;37397;53.226;10.400;2023-03-13T03:41:53;99485.75;;;6.35;75.67
51313;BME280;37397;53.226;10.400;2023-03-13T03:44:21;99484.78;;;6.38;75.57
51313;BME280;37397;53.226;10.400;2023-03-13T03:46:51;99479.09;;;6.38;75.79
51313;BME280;37397;53.226;10.400;2023-03-13T03:49:19;99463.84;;;6.35;75.74
51313;BME280;37397;53.226;10.400;2023-03-13T03:51:46;99452.50;;;6.35;75.59
51313;BME280;37397;53.226;10.400;2023-03-13T03:54:17;99449.81;;;6.41;75.70
51313;BME280;37397;53.226;10.400;2023-03-13T03:56:44;99432.31;;;6.43;75.76
51313;BME280;37397;53.226;10.400;2023-03-13T03:59:10;99430.75;;;6.42;75.91
51313;BME280;37397;53.226;10.400;2023-03-13T04:01:41;99434.66;;;6.44;76.00
51313;BME280;37397;53.226;10.400;2023-03-13T04:04:08;99433.38;;;6.45;76.00
51313;BME280;37397;53.226;10.400;2023-03-13T04:06:37;99409.94;;;6.45;75.74
51313;BME280;37397;53.226;10.400;2023-03-13T04:09:05;99413.84;;;6.47;75.81
51313;BME280;37397;53.226;10.400;2023-03-13T04:11:34;99408.19;;;6.47;76.02
51313;BME280;37397;53.226;10.400;2023-03-13T04:14:02;99408.19;;;6.47;75.97
51313;BME280;37397;53.226;10.400;2023-03-13T04:16:28;99404.06;;;6.48;75.94
51313;BME280;37397;53.226;10.400;2023-03-13T04:18:55;99397.16;;;6.49;76.04
51313;BME280;37397;53.226;10.400;2023-03-13T04:21:24;99391.75;;;6.51;76.04
51313;BME280;37397;53.226;10.400;2023-03-13T04:23:57;99384.53;;;6.50;76.05
51313;BME280;37397;53.226;10.400;2023-03-13T04:26:24;99371.03;;;6.45;75.87
51313;BME280;37397;53.226;10.400;2023-03-13T04:28:53;99371.94;;;6.51;76.01
51313;BME280;37397;53.226;10.400;2023-03-13T04:31:34;99364.19;;;6.52;76.32
51313;BME280;37397;53.226;10.400;2023-03-13T04:34:30;99348.00;;;6.52;76.23
51313;BME280;37397;53.226;10.400;2023-03-13T04:37:19;99353.66;;;6.52;76.07
51313;BME280;37397;53.226;10.400;2023-03-13T04:40:15;99339.97;;;6.51;76.15
51313;BME280;37397;53.226;10.400;2023-03-13T04:42:42;99332.25;;;6.51;76.53
51313;BME280;37397;53.226;10.400;2023-03-13T04:45:20;99329.22;;;6.55;76.52
51313;BME280;37397;53.226;10.400;2023-03-13T04:48:05;99313.78;;;6.56;76.65
51313;BME280;37397;53.226;10.400;2023-03-13T04:50:32;99318.19;;;6.57;76.51
51313;BME280;37397;53.226;10.400;2023-03-13T04:53:19;99308.88;;;6.56;76.59
51313;BME280;37397;53.226;10.400;2023-03-13T04:55:52;99290.34;;;6.55;76.47
51313;BME280;37397;53.226;10.400;2023-03-13T04:58:33;99293.47;;;6.57;76.94
51313;BME280;37397;53.226;10.400;2023-03-13T05:01:07;99285.72;;;6.58;76.70
51313;BME280;37397;53.226;10.400;2023-03-13T05:04:06;99273.91;;;6.60;76.65
51313;BME280;37397;53.226;10.400;2023-03-13T05:07:11;99267.47;;;6.59;76.68
51313;BME280;37397;53.226;10.400;2023-03-13T05:10:01;99263.38;;;6.60;77.09
51313;BME280;37397;53.226;10.400;2023-03-13T05:13:02;99249.69;;;6.59;77.35
51313;BME280;37397;53.226;10.400;2023-03-13T05:15:54;99244.56;;;6.63;77.09
51313;BME280;37397;53.226;10.400;2023-03-13T05:18:52;99237.34;;;6.62;77.47
51313;BME280;37397;53.226;10.400;2023-03-13T05:21:45;99226.00;;;6.62;77.56
51313;BME280;37397;53.226;10.400;2023-03-13T05:24:32;99211.66;;;6.65;77.26
51313;BME280;37397;53.226;10.400;2023-03-13T05:27:15;99208.31;;;6.67;77.49
51313;BME280;37397;53.226;10.400;2023-03-13T05:29:51;99192.06;;;6.67;77.62
51313;BME280;37397;53.226;10.400;2023-03-13T05:32:40;99186.63;;;6.64;77.21
51313;BME280;37397;53.226;10.400;2023-03-13T05:35:38;99195.19;;;6.69;77.48
51313;BME280;37397;53.226;10.400;2023-03-13T05:38:20;99183.34;;;6.71;77.70
51313;BME280;37397;53.226;10.400;2023-03-13T05:41:04;99185.41;;;6.70;77.49
51313;BME280;37397;53.226;10.400;2023-03-13T05:43:54;99172.31;;;6.73;77.65
51313;BME280;37397;53.226;10.400;2023-03-13T05:46:52;99173.31;;;6.70;77.84
51313;BME280;37397;53.226;10.400;2023-03-13T05:49:40;99190.38;;;6.75;78.03
51313;BME280;37397;53.226;10.400;2023-03-13T05:52:07;99185.78;;;6.78;78.08
51313;BME280;37397;53.226;10.400;2023-03-13T05:54:59;99187.06;;;6.77;78.18
51313;BME280;37397;53.226;10.400;2023-03-13T05:57:44;99172.31;;;6.73;77.91
51313;BME280;37397;53.226;10.400;2023-03-13T06:00:18;99169.81;;;6.81;78.12
51313;BME280;37397;53.226;10.400;2023-03-13T06:03:04;99169.06;;;6.80;78.16
51313;BME280;37397;53.226;10.400;2023-03-13T06:05:35;99163.66;;;6.82;78.16
51313;BME280;37397;53.226;10.400;2023-03-13T06:08:13;99159.56;;;6.83;78.16
51313;BME280;37397;53.226;10.400;2023-03-13T06:10:39;99149.78;;;6.84;78.06
51313;BME280;37397;53.226;10.400;2023-03-13T06:13:06;99136.38;;;6.85;78.24
51313;BME280;37397;53.226;10.400;2023-03-13T06:15:53;99138.72;;;6.86;78.21
51313;BME280;37397;53.226;10.400;2023-03-13T06:18:42;99137.94;;;6.86;78.47
51313;BME280;37397;53.226;10.400;2023-03-13T06:21:09;99124.81;;;6.88;78.52
51313;BME280;37397;53.226;10.400;2023-03-13T06:23:36;99125.09;;;6.90;78.66
51313;BME280;37397;53.226;10.400;2023-03-13T06:26:03;99124.81;;;6.88;78.37
51313;BME280;37397;53.226;10.400;2023-03-13T06:28:29;99112.47;;;6.91;78.43
51313;BME280;37397;53.226;10.400;2023-03-13T06:31:00;99101.16;;;6.91;78.37
51313;BME280;37397;53.226;10.400;2023-03-13T06:33:27;99114.31;;;6.94;78.43
51313;BME280;37397;53.226;10.400;2023-03-13T06:35:54;99112.25;;;6.95;78.40
51313;BME280;37397;53.226;10.400;2023-03-13T06:38:26;99091.16;;;6.96;77.88
51313;BME280;37397;53.226;10.400;2023-03-13T06:40:53;99090.38;;;6.96;78.15
51313;BME280;37397;53.226;10.400;2023-03-13T06:43:20;99092.19;;;6.99;78.38
51313;BME280;37397;53.226;10.400;2023-03-13T06:45:47;99085.25;;;7.00;78.68
51313;BME280;37397;53.226;10.400;2023-03-13T06:48:14;99090.91;;;7.00;78.80
51313;BME280;37397;53.226;10.400;2023-03-13T06:50:40;99084.25;;;7.03;78.69
51313;BME280;37397;53.226;10.400;2023-03-13T06:53:14;99075.25;;;7.04;78.27
51313;BME280;37397;53.226;10.400;2023-03-13T06:55:42;99067.00;;;7.06;78.42
51313;BME280;37397;53.226;10.400;2023-03-13T06:58:10;99060.56;;;7.06;78.79
51313;BME280;37397;53.226;10.400;2023-03-13T07:00:54;99063.66;;;7.08;78.49
51313;BME280;37397;53.226;10.400;2023-03-13T07:03:20;99053.31;;;7.05;78.47
51313;BME280;37397;53.226;10.400;2023-03-13T07:05:47;99059.84;;;7.11;78.08
51313;BME280;37397;53.226;10.400;2023-03-13T07:08:13;99052.91;;;7.12;78.53
51313;BME280;37397;53.226;10.400;2023-03-13T07:10:41;99051.59;;;7.13;78.54
51313;BME280;37397;53.226;10.400;2023-03-13T07:13:08;99043.88;;;7.14;78.49
51313;BME280;37397;53.226;10.400;2023-03-13T07:15:34;99049.81;;;7.16;78.31
51313;BME280;37397;53.226;10.400;2023-03-13T07:18:01;99045.22;;;7.18;78.63
51313;BME280;37397;53.226;10.400;2023-03-13T07:20:28;99034.88;;;7.15;78.48
51313;BME280;37397;53.226;10.400;2023-03-13T07:22:54;99021.72;;;7.18;78.55
51313;BME280;37397;53.226;10.400;2023-03-13T07:25:21;99024.38;;;7.21;78.55
51313;BME280;37397;53.226;10.400;2023-03-13T07:27:49;99031.06;;;7.24;78.68
51313;BME280;37397;53.226;10.400;2023-03-13T07:30:18;99022.06;;;7.25;78.45
51313;BME280;37397;53.226;10.400;2023-03-13T07:32:45;99013.28;;;7.23;78.50
51313;BME280;37397;53.226;10.400;2023-03-13T07:35:11;99016.94;;;7.29;78.45
51313;BME280;37397;53.226;10.400;2023-03-13T07:37:38;99011.53;;;7.32;78.32
51313;BME280;37397;53.226;10.400;2023-03-13T07:40:05;99011.81;;;7.34;78.44
51313;BME280;37397;53.226;10.400;2023-03-13T07:42:31;99013.38;;;7.35;78.36
51313;BME280;37397;53.226;10.400;2023-03-13T07:44:58;98995.78;;;7.30;78.55
51313;BME280;37397;53.226;10.400;2023-03-13T07:47:25;99001.03;;;7.38;78.58
51313;BME280;37397;53.226;10.400;2023-03-13T07:49:52;98996.13;;;7.38;78.30
51313;BME280;37397;53.226;10.400;2023-03-13T07:52:19;98994.84;;;7.39;78.47
51313;BME280;37397;53.226;10.400;2023-03-13T07:54:45;98994.59;;;7.43;78.53
51313;BME280;37397;53.226;10.400;2023-03-13T07:57:12;98977.03;;;7.39;78.24
51313;BME280;37397;53.226;10.400;2023-03-13T07:59:38;98987.94;;;7.46;78.36
51313;BME280;37397;53.226;10.400;2023-03-13T08:02:05;98974.50;;;7.46;78.02
51313;BME280;37397;53.226;10.400;2023-03-13T08:04:32;98986.91;;;7.49;78.22
51313;BME280;37397;53.226;10.400;2023-03-13T08:06:59;98974.25;;;7.50;78.22
51313;BME280;37397;53.226;10.400;2023-03-13T08:09:26;98974.25;;;7.50;78.36
51313;BME280;37397;53.226;10.400;2023-03-13T08:11:52;98974.06;;;7.54;78.52
51313;BME280;37397;53.226;10.400;2023-03-13T08:14:19;98969.66;;;7.53;78.34
51313;BME280;37397;53.226;10.400;2023-03-13T08:16:45;98982.31;;;7.57;78.52
51313;BME280;37397;53.226;10.400;2023-03-13T08:19:12;98976.66;;;7.57;78.51
51313;BME280;37397;53.226;10.400;2023-03-13T08:21:38;98972.53;;;7.58;78.58
51313;BME280;37397;53.226;10.400;2023-03-13T08:24:07;98960.88;;;7.56;78.37
51313;BME280;37397;53.226;10.400;2023-03-13T08:26:35;98967.13;;;7.60;78.47
51313;BME280;37397;53.226;10.400;2023-03-13T08:29:05;98968.41;;;7.59;78.33
51313;BME280;37397;53.226;10.400;2023-03-13T08:31:41;98968.94;;;7.63;78.36
51313;BME280;37397;53.226;10.400;2023-03-13T08:34:10;98957.09;;;7.65;78.41
51313;BME280;37397;53.226;10.400;2023-03-13T08:36:38;98966.38;;;7.65;78.62
51313;BME280;37397;53.226;10.400;2023-03-13T08:39:11;98958.13;;;7.67;78.69
51313;BME280;37397;53.226;10.400;2023-03-13T08:41:38;98956.84;;;7.69;79.24
51313;BME280;37397;53.226;10.400;2023-03-13T08:44:13;98960.75;;;7.71;79.19
51313;BME280;37397;53.226;10.400;2023-03-13T08:46:40;98962.53;;;7.74;79.45
51313;BME280;37397;53.226;10.400;2023-03-13T08:49:07;98953.81;;;7.78;79.61
51313;BME280;37397;53.226;10.400;2023-03-13T08:51:35;98954.84;;;7.80;79.82
51313;BME280;37397;53.226;10.400;2023-03-13T08:54:02;98952.28;;;7.82;79.92
51313;BME280;37397;53.226;10.400;2023-03-13T08:56:30;98943.53;;;7.86;79.44
51313;BME280;37397;53.226;10.400;2023-03-13T08:58:59;98946.63;;;7.88;79.75
51313;BME280;37397;53.226;10.400;2023-03-13T09:01:28;98945.59;;;7.91;80.04
51313;BME280;37397;53.226;10.400;2023-03-13T09:03:55;98942.50;;;7.95;79.90
51313;BME280;37397;53.226;10.400;2023-03-13T09:06:23;98932.97;;;7.98;80.19
51313;BME280;37397;53.226;10.400;2023-03-13T09:08:49;98941.00;;;7.99;79.96
51313;BME280;37397;53.226;10.400;2023-03-13T09:11:19;98931.44;;;8.02;80.64
51313;BME280;37397;53.226;10.400;2023-03-13T09:13:48;98944.13;;;8.07;80.44
51313;BME280;37397;53.226;10.400;2023-03-13T09:16:20;98935.34;;;8.11;81.07
51313;BME280;37397;53.226;10.400;2023-03-13T09:18:49;98928.66;;;8.14;81.14
51313;BME280;37397;53.226;10.400;2023-03-13T09:21:20;98921.94;;;8.17;80.72
51313;BME280;37397;53.226;10.400;2023-03-13T09:23:48;98921.69;;;8.20;80.98
51313;BME280;37397;53.226;10.400;2023-03-13T09:26:17;98916.56;;;8.25;80.96
51313;BME280;37397;53.226;10.400;2023-03-13T09:28:45;98914.75;;;8.27;81.18
51313;BME280;37397;53.226;10.400;2023-03-13T09:31:16;98913.22;;;8.26;81.27
51313;BME280;37397;53.226;10.400;2023-03-13T09:33:46;98924.81;;;8.34;81.08
51313;BME280;37397;53.226;10.400;2023-03-13T09:36:13;98914.25;;;8.34;81.22
51313;BME280;37397;53.226;10.400;2023-03-13T09:38:40;98907.28;;;8.41;81.11
51313;BME280;37397;53.226;10.400;2023-03-13T09:43:50;98909.38;;;8.46;81.63
51313;BME280;37397;53.226;10.400;2023-03-13T09:46:25;98896.75;;;8.53;81.52
51313;BME280;37397;53.226;10.400;2023-03-13T09:49:06;98906.31;;;8.55;81.48
51313;BME280;37397;53.226;10.400;2023-03-13T09:51:37;98904.50;;;8.58;81.57
51313;BME280;37397;53.226;10.400;2023-03-13T09:54:27;98917.97;;;8.63;81.75
51313;BME280;37397;53.226;10.400;2023-03-13T09:57:16;98904.25;;;8.67;81.66
51313;BME280;37397;53.226;10.400;2023-03-13T10:02:28;98915.91;;;8.75;81.63
51313;BME280;37397;53.226;10.400;2023-03-13T10:05:23;98910.47;;;8.77;81.75
51313;BME280;37397;53.226;10.400;2023-03-13T10:07:52;98911.75;;;8.82;81.47
51313;BME280;37397;53.226;10.400;2023-03-13T10:10:39;98914.34;;;8.80;81.97
51313;BME280;37397;53.226;10.400;2023-03-13T10:13:18;98926.00;;;8.87;82.06
51313;BME280;37397;53.226;10.400;2023-03-13T10:15:52;98915.41;;;8.93;82.16
51313;BME280;37397;53.226;10.400;2023-03-13T10:18:22;98921.59;;;8.98;82.42
51313;BME280;37397;53.226;10.400;2023-03-13T10:20:52;98929.84;;;9.01;82.36
51313;BME280;37397;53.226;10.400;2023-03-13T10:25:58;98932.44;;;9.10;82.61
51313;BME280;37397;53.226;10.400;2023-03-13T10:28:25;98926.25;;;9.12;82.51
51313;BME280;37397;53.226;10.400;2023-03-13T10:30:58;98932.72;;;9.18;82.06
51313;BME280;37397;53.226;10.400;2023-03-13T10:33:28;98936.84;;;9.23;82.44
51313;BME280;37397;53.226;10.400;2023-03-13T10:36:21;98944.34;;;9.26;82.71
51313;BME280;37397;53.226;10.400;2023-03-13T10:38:53;98932.97;;;9.26;82.96
51313;BME280;37397;53.226;10.400;2023-03-13T10:41:25;98928.56;;;9.36;82.89
51313;BME280;37397;53.226;10.400;2023-03-13T10:44:01;98940.97;;;9.39;82.71
51313;BME280;37397;53.226;10.400;2023-03-13T10:46:34;98932.41;;;9.44;82.86
51313;BME280;37397;53.226;10.400;2023-03-13T10:49:03;98927.75;;;9.47;82.74
51313;BME280;37397;53.226;10.400;2023-03-13T10:51:38;98935.78;;;9.48;82.76
51313;BME280;37397;53.226;10.400;2023-03-13T10:56:42;98922.56;;;9.57;82.37
51313;BME280;37397;53.226;10.400;2023-03-13T10:59:19;98917.38;;;9.61;82.49
51313;BME280;37397;53.226;10.400;2023-03-13T11:01:49;98905.97;;;9.61;82.42
51313;BME280;37397;53.226;10.400;2023-03-13T11:04:29;98900.03;;;9.64;82.44
51313;BME280;37397;53.226;10.400;2023-03-13T11:07:05;98920.97;;;9.73;82.28
51313;BME280;37397;53.226;10.400;2023-03-13T11:09:32;98904.41;;;9.71;82.34
51313;BME280;37397;53.226;10.400;2023-03-13T11:12:05;98913.97;;;9.79;82.37
51313;BME280;37397;53.226;10.400;2023-03-13T11:14:34;98921.69;;;9.84;82.32
51313;BME280;37397;53.226;10.400;2023-03-13T11:20:21;98904.06;;;9.92;82.31
51313;BME280;37397;53.226;10.400;2023-03-13T11:22:52;98893.41;;;9.98;82.52
51313;BME280;37397;53.226;10.400;2023-03-13T11:25:34;98882.28;;;10.00;82.43
51313;BME280;37397;53.226;10.400;2023-03-13T11:28:24;98882.81;;;9.98;82.63
51313;BME280;37397;53.226;10.400;2023-03-13T11:31:10;98890.50;;;10.09;82.57
51313;BME280;37397;53.226;10.400;2023-03-13T11:36:22;98879.84;;;10.15;82.21
51313;BME280;37397;53.226;10.400;2023-03-13T11:39:01;98886.56;;;10.23;82.25
51313;BME280;37397;53.226;10.400;2023-03-13T11:47:17;98867.59;;;10.32;82.08
51313;BME280;37397;53.226;10.400;2023-03-13T11:58:29;98889.28;;;10.52;82.21
51313;BME280;37397;53.226;10.400;2023-03-13T12:01:03;98901.94;;;10.56;81.90
51313;BME280;37397;53.226;10.400;2023-03-13T12:03:39;98873.91;;;10.61;82.36
51313;BME280;37397;53.226;10.400;2023-03-13T12:06:19;98864.53;;;10.66;82.61
51313;BME280;37397;53.226;10.400;2023-03-13T12:08:59;98860.88;;;10.71;82.61
51313;BME280;37397;53.226;10.400;2023-03-13T12:11:31;98849.16;;;10.74;82.64
51313;BME280;37397;53.226;10.400;2023-03-13T12:14:05;98859.53;;;10.77;82.28
51313;BME280;37397;53.226;10.400;2023-03-13T12:16:42;98841.03;;;10.84;82.34
51313;BME280;37397;53.226;10.400;2023-03-13T12:19:15;98844.41;;;10.88;82.63
51313;BME280;37397;53.226;10.400;2023-03-13T12:21:49;98853.41;;;10.92;82.42
51313;BME280;37397;53.226;10.400;2023-03-13T12:24:21;98836.84;;;10.91;82.64
51313;BME280;37397;53.226;10.400;2023-03-13T12:29:41;98826.06;;;11.03;82.34
51313;BME280;37397;53.226;10.400;2023-03-13T12:32:15;98825.28;;;11.08;82.29
51313;BME280;37397;53.226;10.400;2023-03-13T12:37:29;98816.09;;;11.15;82.10
51313;BME280;37397;53.226;10.400;2023-03-13T12:40:11;98818.19;;;11.15;81.61
51313;BME280;37397;53.226;10.400;2023-03-13T12:42:55;98801.25;;;11.22;82.01
51313;BME280;37397;53.226;10.400;2023-03-13T12:45:23;98799.88;;;11.29;82.11
51313;BME280;37397;53.226;10.400;2023-03-13T12:48:19;98804.25;;;11.30;81.84
51313;BME280;37397;53.226;10.400;2023-03-13T12:53:39;98786.53;;;11.37;81.55
51313;BME280;37397;53.226;10.400;2023-03-13T12:58:56;98764.94;;;11.42;81.05
51313;BME280;37397;53.226;10.400;2023-03-13T13:01:39;98762.78;;;11.48;81.25
51313;BME280;37397;53.226;10.400;2023-03-13T13:04:18;98767.41;;;11.51;81.36
51313;BME280;37397;53.226;10.400;2023-03-13T13:06:52;98753.69;;;11.49;80.86
51313;BME280;37397;53.226;10.400;2023-03-13T13:09:23;98739.53;;;11.57;81.04
51313;BME280;37397;53.226;10.400;2023-03-13T13:11:51;98757.69;;;11.60;81.09
51313;BME280;37397;53.226;10.400;2023-03-13T13:16:56;98774.75;;;11.65;80.53
51313;BME280;37397;53.226;10.400;2023-03-13T13:24:54;98764.50;;;11.76;80.39
51313;BME280;37397;53.226;10.400;2023-03-13T13:32:43;98745.63;;;11.86;79.92
51313;BME280;37397;53.226;10.400;2023-03-13T13:35:29;98759.63;;;11.90;79.68
51313;BME280;37397;53.226;10.400;2023-03-13T13:38:26;98750.50;;;11.91;79.37
51313;BME280;37397;53.226;10.400;2023-03-13T13:43:23;98743.44;;;11.98;79.65
51313;BME280;37397;53.226;10.400;2023-03-13T13:46:17;98747.28;;;12.00;79.21
51313;BME280;37397;53.226;10.400;2023-03-13T13:48:46;98743.34;;;12.03;79.36
51313;BME280;37397;53.226;10.400;2023-03-13T13:53:58;98730.81;;;12.07;78.93
51313;BME280;37397;53.226;10.400;2023-03-13T13:56:37;98728.19;;;12.09;78.78
51313;BME280;37397;53.226;10.400;2023-03-13T14:02:14;98711.91;;;12.03;78.52
51313;BME280;37397;53.226;10.400;2023-03-13T14:05:02;98709.06;;;12.17;78.28
51313;BME280;37397;53.226;10.400;2023-03-13T14:07:40;98716.69;;;12.14;78.80
51313;BME280;37397;53.226;10.400;2023-03-13T14:10:38;98722.53;;;12.22;78.52
51313;BME280;37397;53.226;10.400;2023-03-13T14:13:14;98709.75;;;12.23;78.55
51313;BME280;37397;53.226;10.400;2023-03-13T14:15:45;98721.66;;;12.27;78.55
51313;BME280;37397;53.226;10.400;2023-03-13T14:18:24;98700.09;;;12.26;78.23
51313;BME280;37397;53.226;10.400;2023-03-13T14:21:01;98713.53;;;12.31;78.19
51313;BME280;37397;53.226;10.400;2023-03-13T14:23:34;98696.38;;;12.31;78.23
51313;BME280;37397;53.226;10.400;2023-03-13T14:26:14;98703.31;;;12.36;78.13
51313;BME280;37397;53.226;10.400;2023-03-13T14:28:54;98694.19;;;12.37;78.04
51313;BME280;37397;53.226;10.400;2023-03-13T14:31:26;98709.50;;;12.40;77.94
51313;BME280;37397;53.226;10.400;2023-03-13T14:33:54;98694.09;;;12.43;78.03
51313;BME280;37397;53.226;10.400;2023-03-13T14:36:21;98706.84;;;12.42;77.74
51313;BME280;37397;53.226;10.400;2023-03-13T14:38:57;98702.34;;;12.47;77.71